Time;durP1;ratioP1;P1;durP2;ratioP2;P2;SDS_P1;SDS_P2;PMS_P1;PMS_P2;Temp;Humidity;BMP_temperature;BMP_pressure;BME280_temperature;BME280_humidity;BME280_pressure;Samples;Min_cycle;Max_cycle;Signal;HPM_P1;HPM_P2
2023/05/16 00:02:18;;;;;;;4.57;4.28;;;;;;;;;;5035044;28;20738;-80
2023/05/16 00:04:45;;;;;;;4.18;3.88;;;;;;;;;;5035079;28;20375;-80
2023/05/16 00:07:11;;;;;;;4.40;4.10;;;;;;;;;;5042961;28;20409;-80
2023/05/16 00:09:37;;;;;;;4.45;4.15;;;;;;;;;;5035734;28;20834;-80
2023/05/16 00:12:03;;;;;;;4.57;4.18;;;;;;;;;;5037298;28;20486;-80
2023/05/16 00:14:32;;;;;;;4.25;4.00;;;;;;;;;;5047545;28;20407;-81
2023/05/16 00:16:58;;;;;;;5.00;4.60;;;;;;;;;;5048166;28;20742;-80
2023/05/16 00:19:25;;;;;;;4.13;3.85;;;;;;;;;;5046748;28;20414;-80
2023/05/16 00:21:51;;;;;;;4.40;4.10;;;;;;;;;;5051219;28;20380;-79
2023/05/16 00:24:17;;;;;;;4.68;4.32;;;;;;;;;;5036784;28;20387;-81
2023/05/16 00:26:43;;;;;;;4.80;4.18;;;;;;;;;;5035251;28;20396;-79
2023/05/16 00:29:09;;;;;;;5.30;4.90;;;;;;;;;;5035328;28;20379;-80
2023/05/16 00:31:35;;;;;;;4.70;4.40;;;;;;;;;;5035530;28;20916;-80
2023/05/16 00:34:01;;;;;;;4.63;4.22;;;;;;;;;;5039408;28;20382;-80
2023/05/16 00:36:27;;;;;;;4.32;4.03;;;;;;;;;;5051207;28;20794;-79
2023/05/16 00:38:53;;;;;;;4.50;4.10;;;;;;;;;;5050750;28;20899;-79
2023/05/16 00:41:20;;;;;;;4.45;4.10;;;;;;;;;;5043935;28;20411;-79
2023/05/16 00:43:46;;;;;;;4.50;4.20;;;;;;;;;;5045763;28;20460;-79
2023/05/16 00:46:12;;;;;;;4.40;4.10;;;;;;;;;;5032076;28;20521;-79
2023/05/16 00:48:38;;;;;;;3.90;3.70;;;;;;;;;;5041549;28;20389;-79
2023/05/16 00:51:08;;;;;;;3.55;3.35;;;;;;;;;;5044020;28;20882;-79
2023/05/16 00:53:34;;;;;;;3.80;3.50;;;;;;;;;;5031669;28;20378;-79
2023/05/16 00:56:00;;;;;;;3.20;3.00;;;;;;;;;;5041556;28;20744;-79
2023/05/16 00:58:26;;;;;;;4.17;3.43;;;;;;;;;;5051623;28;20393;-79
2023/05/16 01:00:52;;;;;;;3.33;3.03;;;;;;;;;;5036140;28;20497;-79
2023/05/16 01:03:18;;;;;;;3.30;3.00;;;;;;;;;;5031613;28;20414;-79
2023/05/16 01:05:45;;;;;;;3.35;3.15;;;;;;;;;;5031898;28;20465;-79
2023/05/16 01:08:11;;;;;;;3.35;3.05;;;;;;;;;;5031374;28;20383;-79
2023/05/16 01:10:48;;;;;;;3.20;3.00;;;;;;;;;;5032059;28;20421;-79
2023/05/16 01:13:20;;;;;;;3.00;2.80;;;;;;;;;;5031738;28;20386;-79
2023/05/16 01:15:48;;;;;;;3.10;2.90;;;;;;;;;;5053114;28;20392;-79
2023/05/16 01:18:20;;;;;;;3.70;3.40;;;;;;;;;;5034065;28;20414;-79
2023/05/16 01:20:54;;;;;;;3.22;2.92;;;;;;;;;;5030723;28;20813;-79
2023/05/16 01:23:59;;;;;;;3.15;2.95;;;;;;;;;;5031654;28;20789;-80
2023/05/16 01:26:26;;;;;;;3.40;3.10;;;;;;;;;;4985040;28;20390;-79
2023/05/16 01:28:53;;;;;;;3.35;3.15;;;;;;;;;;4990196;28;20982;-79
2023/05/16 01:31:19;;;;;;;5.17;3.40;;;;;;;;;;4990013;28;20909;-79
2023/05/16 01:33:45;;;;;;;4.55;4.03;;;;;;;;;;4990196;28;20395;-79
2023/05/16 01:36:14;;;;;;;4.00;3.70;;;;;;;;;;4990217;28;20866;-79
2023/05/16 01:38:59;;;;;;;3.70;3.50;;;;;;;;;;4992441;28;20869;-79
2023/05/16 01:41:40;;;;;;;3.43;3.13;;;;;;;;;;4982750;28;20472;-79
2023/05/16 01:44:09;;;;;;;3.60;3.40;;;;;;;;;;4993808;28;20394;-79
2023/05/16 01:46:38;;;;;;;4.10;3.20;;;;;;;;;;4993758;28;20379;-79
2023/05/16 01:49:08;;;;;;;4.10;3.30;;;;;;;;;;4992006;28;20398;-79
2023/05/16 01:51:35;;;;;;;3.30;3.00;;;;;;;;;;4993126;28;20390;-79
2023/05/16 01:54:05;;;;;;;2.95;2.75;;;;;;;;;;4993293;28;20452;-79
2023/05/16 01:56:32;;;;;;;2.97;2.78;;;;;;;;;;5006283;28;20384;-79
2023/05/16 01:58:59;;;;;;;2.75;2.55;;;;;;;;;;5044321;28;20417;-79
2023/05/16 02:01:25;;;;;;;2.60;2.40;;;;;;;;;;5034842;28;20741;-79
2023/05/16 02:03:51;;;;;;;2.80;2.60;;;;;;;;;;5035135;28;20383;-79
2023/05/16 02:06:17;;;;;;;3.63;2.47;;;;;;;;;;5034754;28;20390;-79
2023/05/16 02:08:43;;;;;;;3.20;3.00;;;;;;;;;;5050460;28;20429;-79
2023/05/16 02:11:09;;;;;;;2.97;2.80;;;;;;;;;;5054632;28;20464;-79
2023/05/16 02:13:36;;;;;;;2.60;2.40;;;;;;;;;;5054688;28;20479;-79
2023/05/16 02:16:02;;;;;;;3.70;2.88;;;;;;;;;;5049131;28;20427;-79
2023/05/16 02:18:28;;;;;;;3.23;3.03;;;;;;;;;;5046837;28;20525;-79
2023/05/16 02:20:54;;;;;;;4.78;3.55;;;;;;;;;;5042359;28;20411;-79
2023/05/16 02:23:20;;;;;;;4.28;3.97;;;;;;;;;;5054433;28;20412;-79
2023/05/16 02:25:46;;;;;;;4.43;4.20;;;;;;;;;;5050471;28;20414;-79
2023/05/16 02:28:12;;;;;;;3.92;3.70;;;;;;;;;;5057268;28;20387;-79
2023/05/16 02:30:38;;;;;;;3.83;3.53;;;;;;;;;;5033411;28;20390;-79
2023/05/16 02:33:04;;;;;;;3.60;3.33;;;;;;;;;;5034463;28;20391;-79
2023/05/16 02:35:30;;;;;;;3.80;3.50;;;;;;;;;;5044215;28;20476;-79
2023/05/16 02:37:56;;;;;;;3.20;3.00;;;;;;;;;;5053564;28;20393;-79
2023/05/16 02:40:22;;;;;;;3.08;2.85;;;;;;;;;;5037989;28;20777;-79
2023/05/16 02:42:48;;;;;;;3.58;3.28;;;;;;;;;;5052126;28;20416;-79
2023/05/16 02:45:15;;;;;;;3.50;3.13;;;;;;;;;;5050823;28;20484;-80
2023/05/16 02:47:41;;;;;;;3.20;3.00;;;;;;;;;;5047287;28;20378;-79
2023/05/16 02:50:07;;;;;;;3.08;2.88;;;;;;;;;;5042787;28;20734;-80
2023/05/16 02:52:33;;;;;;;2.90;2.70;;;;;;;;;;5045400;28;20867;-80
2023/05/16 02:54:59;;;;;;;3.40;3.20;;;;;;;;;;5046006;28;20379;-80
2023/05/16 02:57:25;;;;;;;3.20;3.00;;;;;;;;;;5038783;28;20769;-80
2023/05/16 02:59:51;;;;;;;3.35;3.15;;;;;;;;;;5047978;28;20446;-80
2023/05/16 03:02:17;;;;;;;3.30;2.90;;;;;;;;;;5039778;28;20379;-80
2023/05/16 03:04:43;;;;;;;3.33;3.03;;;;;;;;;;5043137;28;20459;-80
2023/05/16 03:07:09;;;;;;;3.63;3.33;;;;;;;;;;5037281;28;20379;-80
2023/05/16 03:09:35;;;;;;;3.53;2.90;;;;;;;;;;5038568;28;20738;-80
2023/05/16 03:12:01;;;;;;;3.38;3.17;;;;;;;;;;5040143;28;20462;-80
2023/05/16 03:14:27;;;;;;;3.40;3.10;;;;;;;;;;5058461;28;20908;-79
2023/05/16 03:16:53;;;;;;;3.53;3.33;;;;;;;;;;5046714;28;20457;-80
2023/05/16 03:19:19;;;;;;;3.60;3.30;;;;;;;;;;5039585;28;20406;-80
2023/05/16 03:21:45;;;;;;;3.22;3.03;;;;;;;;;;5045764;28;20432;-80
2023/05/16 03:24:11;;;;;;;3.70;3.40;;;;;;;;;;5035854;28;20383;-80
2023/05/16 03:26:37;;;;;;;4.00;3.60;;;;;;;;;;5036316;28;20750;-81
2023/05/16 03:29:03;;;;;;;6.00;3.83;;;;;;;;;;5033459;28;20379;-80
2023/05/16 03:31:30;;;;;;;4.22;4.00;;;;;;;;;;5033480;28;20387;-80
2023/05/16 03:33:56;;;;;;;5.18;4.78;;;;;;;;;;5036436;28;20707;-80
2023/05/16 03:36:23;;;;;;;5.72;5.32;;;;;;;;;;5033899;28;20386;-80
2023/05/16 03:38:49;;;;;;;6.45;5.68;;;;;;;;;;5050730;28;20388;-80
2023/05/16 03:41:15;;;;;;;5.32;4.90;;;;;;;;;;5046038;28;20403;-80
2023/05/16 03:43:41;;;;;;;4.85;4.55;;;;;;;;;;5033098;28;20386;-81
2023/05/16 03:46:07;;;;;;;4.22;3.92;;;;;;;;;;5032808;28;20379;-80
2023/05/16 03:48:33;;;;;;;4.30;3.90;;;;;;;;;;5032045;28;20376;-80
2023/05/16 03:51:02;;;;;;;4.47;4.18;;;;;;;;;;5037714;28;20900;-81
2023/05/16 03:53:28;;;;;;;4.63;4.20;;;;;;;;;;5041886;28;20399;-81
2023/05/16 03:55:54;;;;;;;4.77;4.43;;;;;;;;;;5032635;28;20391;-81
2023/05/16 03:58:19;;;;;;;4.88;4.47;;;;;;;;;;5045990;28;20470;-80
2023/05/16 04:00:45;;;;;;;4.82;4.53;;;;;;;;;;5046942;28;20852;-81
2023/05/16 04:03:12;;;;;;;4.43;4.13;;;;;;;;;;5042848;28;20390;-80
2023/05/16 04:05:38;;;;;;;4.63;4.22;;;;;;;;;;5044202;28;20808;-80
2023/05/16 04:08:04;;;;;;;4.85;4.13;;;;;;;;;;5051557;28;20430;-81
2023/05/16 04:10:30;;;;;;;4.50;4.10;;;;;;;;;;5051428;28;20879;-81
2023/05/16 04:12:56;;;;;;;4.18;3.97;;;;;;;;;;5052263;28;20393;-80
2023/05/16 04:15:22;;;;;;;3.92;3.72;;;;;;;;;;5051863;28;20395;-80
2023/05/16 04:17:48;;;;;;;4.53;4.13;;;;;;;;;;5054986;28;20400;-81
2023/05/16 04:20:14;;;;;;;4.35;3.97;;;;;;;;;;5051727;28;20405;-81
2023/05/16 04:22:40;;;;;;;4.00;3.78;;;;;;;;;;5046574;28;20380;-80
2023/05/16 04:25:07;;;;;;;4.20;3.90;;;;;;;;;;5050180;28;20456;-81
2023/05/16 04:27:33;;;;;;;4.70;4.30;;;;;;;;;;5051456;28;20377;-81
2023/05/16 04:29:59;;;;;;;3.90;3.70;;;;;;;;;;5034204;28;20814;-81
2023/05/16 04:32:27;;;;;;;4.23;3.93;;;;;;;;;;5051837;28;20416;-80
2023/05/16 04:34:53;;;;;;;3.85;3.65;;;;;;;;;;5051982;28;20377;-81
2023/05/16 04:37:19;;;;;;;4.30;3.90;;;;;;;;;;5052091;28;20477;-81
2023/05/16 04:39:46;;;;;;;4.13;3.70;;;;;;;;;;5052212;28;20763;-81
2023/05/16 04:42:12;;;;;;;3.47;3.28;;;;;;;;;;5037633;28;20402;-80
2023/05/16 04:44:38;;;;;;;4.28;3.97;;;;;;;;;;5049795;28;20381;-80
2023/05/16 04:47:04;;;;;;;4.13;3.83;;;;;;;;;;5050343;28;20393;-81
2023/05/16 04:49:30;;;;;;;4.38;4.05;;;;;;;;;;5048678;28;20383;-81
2023/05/16 04:51:56;;;;;;;3.63;3.42;;;;;;;;;;5051774;28;20389;-80
2023/05/16 04:54:22;;;;;;;4.45;4.15;;;;;;;;;;5049157;28;20387;-81
2023/05/16 04:56:48;;;;;;;4.45;4.10;;;;;;;;;;5046338;28;20400;-81
2023/05/16 04:59:14;;;;;;;4.22;3.92;;;;;;;;;;5046128;28;20410;-81
2023/05/16 05:01:40;;;;;;;4.18;3.72;;;;;;;;;;5050541;28;20391;-81
2023/05/16 05:04:06;;;;;;;4.40;4.00;;;;;;;;;;5048586;28;20386;-78
2023/05/16 05:06:32;;;;;;;4.20;3.80;;;;;;;;;;5050114;28;20957;-79
2023/05/16 05:08:58;;;;;;;4.30;4.10;;;;;;;;;;5040969;28;20417;-79
2023/05/16 05:11:26;;;;;;;4.85;4.55;;;;;;;;;;5048046;28;20377;-79
2023/05/16 05:13:52;;;;;;;5.18;4.88;;;;;;;;;;5055017;28;20983;-80
2023/05/16 05:16:17;;;;;;;4.90;4.60;;;;;;;;;;5046520;28;20497;-80
2023/05/16 05:18:44;;;;;;;5.60;5.13;;;;;;;;;;5041105;28;20371;-79
2023/05/16 05:21:10;;;;;;;6.25;5.72;;;;;;;;;;5037985;28;20414;-79
2023/05/16 05:23:36;;;;;;;9.00;8.23;;;;;;;;;;5037565;28;20406;-81
2023/05/16 05:26:02;;;;;;;8.00;7.40;;;;;;;;;;5041411;28;20475;-81
2023/05/16 05:28:28;;;;;;;7.57;7.00;;;;;;;;;;5054759;28;20456;-81
2023/05/16 05:30:54;;;;;;;7.57;7.07;;;;;;;;;;5054454;28;20435;-80
2023/05/16 05:33:25;;;;;;;8.88;8.10;;;;;;;;;;5054149;28;20389;-80
2023/05/16 05:35:52;;;;;;;8.00;7.50;;;;;;;;;;5054881;28;20427;-80
2023/05/16 05:38:19;;;;;;;8.50;7.85;;;;;;;;;;5055006;28;20871;-80
2023/05/16 05:40:45;;;;;;;8.20;7.60;;;;;;;;;;5049616;28;20417;-79
2023/05/16 05:43:11;;;;;;;8.13;7.53;;;;;;;;;;5035202;28;20409;-78
2023/05/16 05:45:37;;;;;;;7.65;7.05;;;;;;;;;;5035996;28;20390;-80
2023/05/16 05:48:03;;;;;;;7.18;6.60;;;;;;;;;;5035489;28;20385;-79
2023/05/16 05:50:29;;;;;;;7.80;7.30;;;;;;;;;;5042004;28;20387;-79
2023/05/16 05:52:55;;;;;;;8.23;7.63;;;;;;;;;;5053650;28;20392;-79
2023/05/16 05:55:21;;;;;;;7.88;7.28;;;;;;;;;;5053354;28;20385;-80
2023/05/16 05:57:47;;;;;;;8.73;8.07;;;;;;;;;;5036900;28;20443;-79
2023/05/16 06:00:13;;;;;;;10.30;9.50;;;;;;;;;;5033133;28;20819;-79
2023/05/16 06:02:39;;;;;;;10.07;9.23;;;;;;;;;;5038326;28;20390;-79
2023/05/16 06:05:06;;;;;;;9.80;9.07;;;;;;;;;;5046536;28;20376;-79
2023/05/16 06:07:32;;;;;;;10.73;9.88;;;;;;;;;;5050198;28;20864;-79
2023/05/16 06:10:03;;;;;;;11.50;10.70;;;;;;;;;;5056716;28;20451;-79
2023/05/16 06:12:29;;;;;;;13.65;12.45;;;;;;;;;;5043582;28;20426;-80
2023/05/16 06:14:55;;;;;;;16.65;15.05;;;;;;;;;;5055452;28;20387;-78
2023/05/16 06:17:21;;;;;;;15.63;14.32;;;;;;;;;;5044095;28;20396;-79
2023/05/16 06:19:47;;;;;;;14.52;13.32;;;;;;;;;;5053896;28;20802;-79
2023/05/16 06:22:13;;;;;;;17.33;15.75;;;;;;;;;;5054308;28;20413;-79
2023/05/16 06:24:39;;;;;;;15.67;14.27;;;;;;;;;;5035558;28;20416;-79
2023/05/16 06:27:06;;;;;;;17.05;15.63;;;;;;;;;;5038196;28;20396;-78
2023/05/16 06:29:32;;;;;;;16.92;15.52;;;;;;;;;;5046660;28;20429;-79
2023/05/16 06:31:58;;;;;;;16.75;15.25;;;;;;;;;;5042232;28;20433;-79
2023/05/16 06:34:27;;;;;;;19.08;17.48;;;;;;;;;;5048487;28;20393;-79
2023/05/16 06:36:53;;;;;;;16.97;15.47;;;;;;;;;;5054125;28;20439;-79
2023/05/16 06:39:19;;;;;;;19.30;17.55;;;;;;;;;;5053536;28;20887;-79
2023/05/16 06:41:45;;;;;;;20.70;18.80;;;;;;;;;;5043761;28;20371;-78
2023/05/16 06:44:11;;;;;;;21.52;19.52;;;;;;;;;;5029135;28;20412;-79
2023/05/16 06:46:37;;;;;;;23.25;20.98;;;;;;;;;;5025467;28;20378;-79
2023/05/16 06:49:04;;;;;;;23.00;20.67;;;;;;;;;;5038720;28;20394;-79
2023/05/16 06:51:30;;;;;;;23.67;21.38;;;;;;;;;;5034000;28;20474;-79
2023/05/16 06:53:56;;;;;;;23.83;21.33;;;;;;;;;;5029347;28;20853;-79
2023/05/16 06:56:22;;;;;;;26.80;23.95;;;;;;;;;;5034422;28;20858;-79
2023/05/16 06:58:49;;;;;;;28.90;25.90;;;;;;;;;;5039557;28;20554;-78
2023/05/16 07:01:15;;;;;;;28.55;25.65;;;;;;;;;;5052437;28;20386;-79
2023/05/16 07:03:42;;;;;;;32.90;29.30;;;;;;;;;;5033769;28;20432;-79
2023/05/16 07:06:08;;;;;;;30.05;26.88;;;;;;;;;;5033528;28;20505;-79
2023/05/16 07:08:35;;;;;;;31.60;28.08;;;;;;;;;;5033589;28;20498;-79
2023/05/16 07:11:01;;;;;;;32.63;28.83;;;;;;;;;;5033683;28;20379;-79
2023/05/16 07:13:27;;;;;;;36.53;30.37;;;;;;;;;;5021593;28;20787;-78
2023/05/16 07:15:53;;;;;;;35.15;29.17;;;;;;;;;;5041213;28;20394;-78
2023/05/16 07:18:19;;;;;;;31.65;28.30;;;;;;;;;;5033302;28;20383;-78
2023/05/16 07:20:46;;;;;;;30.38;27.27;;;;;;;;;;5033186;28;20402;-79
2023/05/16 07:23:12;;;;;;;34.13;30.42;;;;;;;;;;5033103;28;20383;-78
2023/05/16 07:25:38;;;;;;;34.35;30.17;;;;;;;;;;5035872;28;20412;-78
2023/05/16 07:28:04;;;;;;;30.53;26.77;;;;;;;;;;5034853;28;20737;-78
2023/05/16 07:30:30;;;;;;;29.67;26.58;;;;;;;;;;5033090;28;20395;-78
2023/05/16 07:32:57;;;;;;;34.78;30.98;;;;;;;;;;5033192;28;20406;-78
2023/05/16 07:35:23;;;;;;;29.80;26.08;;;;;;;;;;5032929;28;20387;-78
2023/05/16 07:37:48;;;;;;;32.80;28.90;;;;;;;;;;5025871;28;20398;-78
2023/05/16 07:40:16;;;;;;;29.50;26.40;;;;;;;;;;5048731;28;20891;-78
2023/05/16 07:42:43;;;;;;;30.65;27.23;;;;;;;;;;5033850;28;20461;-79
2023/05/16 07:45:09;;;;;;;29.85;26.73;;;;;;;;;;5033074;28;20518;-79
2023/05/16 07:47:35;;;;;;;27.80;24.98;;;;;;;;;;5033111;28;20407;-78
2023/05/16 07:50:01;;;;;;;30.67;27.50;;;;;;;;;;5032968;28;20383;-79
2023/05/16 07:52:27;;;;;;;28.27;25.38;;;;;;;;;;5034002;28;20869;-79
2023/05/16 07:54:53;;;;;;;30.25;27.05;;;;;;;;;;5032735;28;20391;-78
2023/05/16 07:57:19;;;;;;;28.27;25.30;;;;;;;;;;5032723;28;20390;-78
2023/05/16 07:59:45;;;;;;;28.40;25.50;;;;;;;;;;5032526;28;20971;-79
2023/05/16 08:02:12;;;;;;;26.20;23.55;;;;;;;;;;5032637;28;20375;-79
2023/05/16 08:04:38;;;;;;;25.20;22.77;;;;;;;;;;5038781;28;20383;-79
2023/05/16 08:07:04;;;;;;;27.55;24.65;;;;;;;;;;5043297;28;20788;-79
2023/05/16 08:09:30;;;;;;;26.98;24.20;;;;;;;;;;5032287;28;20391;-78
2023/05/16 08:11:56;;;;;;;28.23;25.33;;;;;;;;;;5041648;28;20383;-79
2023/05/16 08:14:22;;;;;;;26.70;24.02;;;;;;;;;;5032612;28;20379;-79
2023/05/16 08:16:48;;;;;;;26.85;24.20;;;;;;;;;;5057952;28;20894;-78
2023/05/16 08:19:14;;;;;;;23.85;21.65;;;;;;;;;;5040679;28;20403;-79
2023/05/16 08:21:40;;;;;;;26.42;23.92;;;;;;;;;;5032211;28;20435;-79
2023/05/16 08:24:06;;;;;;;22.03;20.13;;;;;;;;;;5032363;28;20376;-79
2023/05/16 08:26:33;;;;;;;22.02;19.92;;;;;;;;;;5040672;28;20389;-79
2023/05/16 08:28:59;;;;;;;22.98;20.88;;;;;;;;;;5032160;28;20382;-79
2023/05/16 08:31:25;;;;;;;22.73;20.63;;;;;;;;;;5032131;28;20398;-79
2023/05/16 08:33:51;;;;;;;22.35;20.25;;;;;;;;;;5032062;28;20857;-79
2023/05/16 08:36:18;;;;;;;23.13;20.87;;;;;;;;;;5032207;28;20375;-79
2023/05/16 08:38:44;;;;;;;21.23;19.33;;;;;;;;;;5032128;28;20409;-79
2023/05/16 08:41:10;;;;;;;21.97;19.93;;;;;;;;;;5045887;28;20477;-79
2023/05/16 08:43:36;;;;;;;21.40;19.45;;;;;;;;;;5032128;28;20386;-78
2023/05/16 08:46:02;;;;;;;21.70;19.70;;;;;;;;;;5033110;28;20777;-77
2023/05/16 08:48:31;;;;;;;19.15;17.45;;;;;;;;;;5033944;28;20785;-77
2023/05/16 08:50:57;;;;;;;20.20;18.40;;;;;;;;;;5031775;28;20388;-78
2023/05/16 08:53:26;;;;;;;23.88;21.67;;;;;;;;;;5031922;28;20411;-78
2023/05/16 08:55:52;;;;;;;20.75;18.92;;;;;;;;;;5031803;28;20927;-78
2023/05/16 08:58:19;;;;;;;19.50;17.88;;;;;;;;;;5032411;28;20418;-77
2023/05/16 09:00:46;;;;;;;20.08;18.27;;;;;;;;;;5031696;28;20406;-78
2023/05/16 09:03:12;;;;;;;21.25;19.25;;;;;;;;;;5036368;28;20415;-79
2023/05/16 09:05:38;;;;;;;19.70;17.90;;;;;;;;;;5060146;28;20431;-78
2023/05/16 09:08:05;;;;;;;21.65;19.58;;;;;;;;;;5033900;28;20386;-78
2023/05/16 09:10:31;;;;;;;20.23;18.52;;;;;;;;;;5031663;28;20387;-78
2023/05/16 09:12:57;;;;;;;20.43;18.63;;;;;;;;;;5031531;28;20429;-78
2023/05/16 09:15:23;;;;;;;20.10;18.30;;;;;;;;;;5031727;28;20383;-77
2023/05/16 09:17:49;;;;;;;19.20;17.50;;;;;;;;;;5031757;28;20387;-78
2023/05/16 09:20:16;;;;;;;19.27;17.55;;;;;;;;;;5033604;28;20441;-77
2023/05/16 09:22:55;;;;;;;20.40;18.58;;;;;;;;;;5039213;28;20387;-78
2023/05/16 09:25:22;;;;;;;16.52;15.13;;;;;;;;;;5046277;28;20831;-78
2023/05/16 09:27:48;;;;;;;18.25;16.75;;;;;;;;;;5039549;28;20865;-78
2023/05/16 09:30:15;;;;;;;17.08;15.63;;;;;;;;;;5031512;28;20383;-78
2023/05/16 09:32:44;;;;;;;16.83;15.38;;;;;;;;;;5031327;28;20402;-78
2023/05/16 09:35:31;;;;;;;17.77;16.33;;;;;;;;;;5031443;28;20462;-77
2023/05/16 09:37:57;;;;;;;17.90;16.35;;;;;;;;;;5031602;28;20869;-77
2023/05/16 09:40:23;;;;;;;18.08;16.58;;;;;;;;;;5044863;28;20412;-78
2023/05/16 09:43:07;;;;;;;16.30;14.90;;;;;;;;;;5031404;28;20379;-78
2023/05/16 09:45:35;;;;;;;17.35;15.95;;;;;;;;;;5031360;28;20425;-77
2023/05/16 09:48:04;;;;;;;16.70;15.30;;;;;;;;;;5038020;28;20935;-77
2023/05/16 09:50:32;;;;;;;18.02;16.42;;;;;;;;;;5038174;28;20398;-77
2023/05/16 09:52:58;;;;;;;18.65;17.02;;;;;;;;;;5031238;28;20846;-77
2023/05/16 09:55:24;;;;;;;18.35;16.58;;;;;;;;;;5031754;28;20387;-78
2023/05/16 09:57:50;;;;;;;18.75;17.10;;;;;;;;;;5031244;28;20445;-77
2023/05/16 10:00:17;;;;;;;17.20;15.80;;;;;;;;;;5043941;28;20405;-77
2023/05/16 10:02:43;;;;;;;17.75;16.17;;;;;;;;;;5039073;28;20386;-77
2023/05/16 10:05:09;;;;;;;16.80;15.50;;;;;;;;;;5039788;28;20378;-77
2023/05/16 10:07:37;;;;;;;14.70;13.43;;;;;;;;;;5044087;28;20399;-78
2023/05/16 10:10:07;;;;;;;14.00;12.77;;;;;;;;;;5048893;28;20395;-77
2023/05/16 10:12:33;;;;;;;13.38;12.27;;;;;;;;;;5034650;28;20409;-78
2023/05/16 10:15:03;;;;;;;13.70;12.60;;;;;;;;;;5034642;28;20383;-77
2023/05/16 10:17:39;;;;;;;14.95;13.68;;;;;;;;;;5034738;28;20931;-78
2023/05/16 10:20:06;;;;;;;15.57;14.32;;;;;;;;;;5052326;28;20412;-78
2023/05/16 10:22:34;;;;;;;16.25;14.88;;;;;;;;;;5043643;28;20390;-77
2023/05/16 10:25:08;;;;;;;15.55;14.25;;;;;;;;;;5034424;28;20429;-77
2023/05/16 10:27:35;;;;;;;16.30;14.90;;;;;;;;;;5043053;28;20375;-77
2023/05/16 10:30:01;;;;;;;15.00;13.60;;;;;;;;;;5034156;28;20379;-78
2023/05/16 10:32:28;;;;;;;16.13;14.73;;;;;;;;;;5034458;28;20509;-77
2023/05/16 10:34:55;;;;;;;16.45;15.13;;;;;;;;;;5035087;28;20394;-77
2023/05/16 10:37:21;;;;;;;17.52;15.90;;;;;;;;;;5050027;28;20383;-78
2023/05/16 10:39:47;;;;;;;18.02;16.33;;;;;;;;;;5043755;28;20409;-78
2023/05/16 10:42:17;;;;;;;17.27;15.77;;;;;;;;;;5046399;28;20392;-78
2023/05/16 10:44:43;;;;;;;17.67;16.10;;;;;;;;;;5034673;28;20413;-78
2023/05/16 10:47:09;;;;;;;17.42;15.77;;;;;;;;;;5034125;28;20387;-78
2023/05/16 10:49:40;;;;;;;16.00;14.57;;;;;;;;;;5033918;28;20406;-78
2023/05/16 10:52:10;;;;;;;16.00;14.73;;;;;;;;;;5034068;28;20738;-78
2023/05/16 10:54:38;;;;;;;15.63;14.25;;;;;;;;;;5033964;28;20415;-77
2023/05/16 10:57:05;;;;;;;14.48;13.10;;;;;;;;;;5030235;28;20389;-78
2023/05/16 10:59:39;;;;;;;14.00;12.80;;;;;;;;;;5053060;28;20411;-77
2023/05/16 11:02:20;;;;;;;12.98;11.88;;;;;;;;;;5033858;28;20383;-77
2023/05/16 11:04:48;;;;;;;12.73;11.70;;;;;;;;;;5033939;28;20395;-78
2023/05/16 11:07:15;;;;;;;13.63;12.52;;;;;;;;;;5033753;28;20415;-78
2023/05/16 11:09:44;;;;;;;13.55;12.25;;;;;;;;;;5033286;28;20453;-78
2023/05/16 11:12:10;;;;;;;15.18;13.88;;;;;;;;;;5033646;28;20811;-78
2023/05/16 11:14:44;;;;;;;15.70;14.20;;;;;;;;;;5033541;28;20785;-78
2023/05/16 11:17:11;;;;;;;15.23;13.95;;;;;;;;;;5033875;28;20458;-77
2023/05/16 11:19:40;;;;;;;14.35;13.25;;;;;;;;;;5033657;28;20403;-78
2023/05/16 11:22:18;;;;;;;13.88;12.68;;;;;;;;;;5033502;28;20813;-78
2023/05/16 11:24:53;;;;;;;13.02;12.02;;;;;;;;;;5033327;28;20927;-79
2023/05/16 11:27:27;;;;;;;12.60;11.50;;;;;;;;;;5041852;28;20930;-79
2023/05/16 11:29:55;;;;;;;11.85;10.95;;;;;;;;;;5033165;28;20391;-78
2023/05/16 11:32:21;;;;;;;9.73;9.02;;;;;;;;;;5033230;28;20972;-78
2023/05/16 11:34:48;;;;;;;9.02;8.32;;;;;;;;;;5033248;28;20453;-79
2023/05/16 11:37:14;;;;;;;9.20;8.48;;;;;;;;;;5032905;28;20437;-78
2023/05/16 11:39:40;;;;;;;9.30;8.60;;;;;;;;;;5040884;28;20405;-78
2023/05/16 11:42:06;;;;;;;9.95;9.15;;;;;;;;;;5039229;28;20924;-78
2023/05/16 11:44:32;;;;;;;9.88;9.05;;;;;;;;;;5021220;28;20389;-78
2023/05/16 11:47:00;;;;;;;9.87;9.17;;;;;;;;;;5040846;28;20391;-78
2023/05/16 11:49:27;;;;;;;9.38;8.68;;;;;;;;;;5032766;28;20460;-78
2023/05/16 11:51:55;;;;;;;8.95;8.35;;;;;;;;;;5032956;28;20426;-79
2023/05/16 11:54:21;;;;;;;8.90;8.20;;;;;;;;;;5032728;28;20433;-78
2023/05/16 11:56:47;;;;;;;7.47;6.85;;;;;;;;;;5032705;28;20383;-78
2023/05/16 11:59:14;;;;;;;7.15;6.65;;;;;;;;;;5032511;28;20401;-78
2023/05/16 12:01:41;;;;;;;6.88;6.38;;;;;;;;;;5032978;28;20441;-78
2023/05/16 12:04:11;;;;;;;7.05;6.55;;;;;;;;;;5032522;28;20973;-79
2023/05/16 12:06:37;;;;;;;6.00;5.57;;;;;;;;;;5046453;28;20379;-78
2023/05/16 12:09:09;;;;;;;5.65;5.25;;;;;;;;;;5035613;28;20821;-78
2023/05/16 12:11:39;;;;;;;4.85;4.45;;;;;;;;;;5033612;28;20382;-78
2023/05/16 12:14:06;;;;;;;4.60;4.20;;;;;;;;;;5032516;28;20379;-78
2023/05/16 12:16:32;;;;;;;5.07;4.72;;;;;;;;;;5032272;28;20900;-79
2023/05/16 12:18:58;;;;;;;13.27;12.18;;;;;;;;;;5032494;28;20742;-79
2023/05/16 12:21:25;;;;;;;4.43;4.03;;;;;;;;;;5031290;28;20555;-78
2023/05/16 12:23:56;;;;;;;3.67;3.47;;;;;;;;;;5022057;28;20387;-78
2023/05/16 12:26:25;;;;;;;4.43;4.03;;;;;;;;;;5046364;28;20386;-79
2023/05/16 12:28:56;;;;;;;4.28;3.97;;;;;;;;;;5032452;28;20734;-78
2023/05/16 12:31:22;;;;;;;3.97;3.70;;;;;;;;;;5055537;28;20397;-78
2023/05/16 12:33:53;;;;;;;4.80;4.50;;;;;;;;;;5032513;28;20437;-79
2023/05/16 12:36:19;;;;;;;4.55;4.25;;;;;;;;;;5032322;28;20386;-79
2023/05/16 12:38:46;;;;;;;8.25;7.65;;;;;;;;;;5041456;28;20395;-79
2023/05/16 12:41:17;;;;;;;7.88;7.18;;;;;;;;;;5045305;28;20796;-78
2023/05/16 12:43:44;;;;;;;8.07;7.38;;;;;;;;;;5027401;28;20386;-78
2023/05/16 12:46:11;;;;;;;7.88;7.38;;;;;;;;;;5034208;28;20738;-78
2023/05/16 12:48:38;;;;;;;7.32;6.75;;;;;;;;;;5040363;28;20383;-78
2023/05/16 12:51:13;;;;;;;6.10;5.70;;;;;;;;;;5031309;28;20825;-79
2023/05/16 12:53:46;;;;;;;7.13;6.53;;;;;;;;;;5031889;28;20376;-78
2023/05/16 12:56:14;;;;;;;9.15;8.40;;;;;;;;;;5031637;28;20384;-78
2023/05/16 12:58:40;;;;;;;10.13;9.43;;;;;;;;;;5059411;28;20381;-78
2023/05/16 13:01:06;;;;;;;11.13;10.23;;;;;;;;;;5049366;28;20488;-77
2023/05/16 13:03:33;;;;;;;10.48;9.68;;;;;;;;;;5031769;28;20901;-78
2023/05/16 13:05:59;;;;;;;11.77;10.88;;;;;;;;;;5031658;28;20459;-77
2023/05/16 13:08:25;;;;;;;11.90;10.85;;;;;;;;;;5031858;28;20458;-78
2023/05/16 13:10:51;;;;;;;12.45;11.45;;;;;;;;;;5031764;28;20391;-78
2023/05/16 13:13:20;;;;;;;12.82;11.82;;;;;;;;;;5031736;28;20376;-77
2023/05/16 13:15:46;;;;;;;13.00;11.90;;;;;;;;;;5031783;28;20486;-78
2023/05/16 13:18:13;;;;;;;12.73;11.73;;;;;;;;;;5031647;28;20387;-78
2023/05/16 13:20:39;;;;;;;12.83;11.73;;;;;;;;;;5031471;28;20500;-77
2023/05/16 13:23:05;;;;;;;12.30;11.30;;;;;;;;;;5031558;28;20474;-77
2023/05/16 13:25:31;;;;;;;11.90;11.00;;;;;;;;;;5033571;28;20468;-77
2023/05/16 13:27:57;;;;;;;12.70;11.70;;;;;;;;;;5038298;28;20380;-78
2023/05/16 13:30:23;;;;;;;11.18;10.27;;;;;;;;;;5031455;28;20391;-77
2023/05/16 13:32:51;;;;;;;10.43;9.63;;;;;;;;;;5032587;28;20395;-77
2023/05/16 13:35:17;;;;;;;9.85;9.05;;;;;;;;;;5035235;28;20380;-78
2023/05/16 13:37:43;;;;;;;9.02;8.32;;;;;;;;;;5035460;28;20438;-78
2023/05/16 13:40:09;;;;;;;8.30;7.65;;;;;;;;;;5046874;28;20409;-78
2023/05/16 13:42:38;;;;;;;8.30;7.40;;;;;;;;;;5037156;28;20387;-81
2023/05/16 13:45:05;;;;;;;7.40;6.90;;;;;;;;;;5035237;28;20734;-81
2023/05/16 13:47:31;;;;;;;7.05;6.55;;;;;;;;;;5031176;28;20818;-81
2023/05/16 13:50:02;;;;;;;5.50;5.10;;;;;;;;;;5035243;28;20398;-81
2023/05/16 13:52:28;;;;;;;6.35;5.88;;;;;;;;;;5034872;28;20390;-82
2023/05/16 13:54:54;;;;;;;5.07;4.25;;;;;;;;;;5035282;28;20715;-81
2023/05/16 13:57:21;;;;;;;3.80;3.50;;;;;;;;;;5034974;28;20386;-81
2023/05/16 13:59:47;;;;;;;3.20;2.90;;;;;;;;;;5034879;28;20442;-81
2023/05/16 14:02:14;;;;;;;3.10;2.90;;;;;;;;;;5034905;28;20445;-81
2023/05/16 14:04:40;;;;;;;2.85;2.65;;;;;;;;;;5034865;28;20378;-81
2023/05/16 14:07:06;;;;;;;2.70;2.50;;;;;;;;;;5035119;28;20386;-81
2023/05/16 14:09:33;;;;;;;2.00;1.90;;;;;;;;;;5038894;28;20868;-81
2023/05/16 14:12:01;;;;;;;2.50;1.50;;;;;;;;;;5047822;28;20884;-81
2023/05/16 14:14:27;;;;;;;1.30;1.20;;;;;;;;;;5034769;28;20456;-81
2023/05/16 14:16:53;;;;;;;5.40;1.50;;;;;;;;;;5049260;28;20842;-81
2023/05/16 14:19:19;;;;;;;1.45;1.20;;;;;;;;;;5062310;28;20377;-81
2023/05/16 14:21:45;;;;;;;1.60;1.20;;;;;;;;;;5036073;28;20371;-81
2023/05/16 14:24:11;;;;;;;1.10;1.00;;;;;;;;;;5034592;28;20711;-81
2023/05/16 14:26:37;;;;;;;1.00;1.00;;;;;;;;;;5043035;28;20408;-81
2023/05/16 14:29:04;;;;;;;1.27;1.17;;;;;;;;;;5034593;28;20787;-81
2023/05/16 14:31:30;;;;;;;1.90;1.30;;;;;;;;;;5029187;28;20413;-81
2023/05/16 14:33:56;;;;;;;1.25;1.15;;;;;;;;;;5042959;28;20390;-81